createdAt,value
2023-02-09T00:00:17.261Z,102470.00
2023-02-09T00:02:46.051Z,102464.03
2023-02-09T00:05:16.275Z,102465.84
2023-02-09T00:07:44.907Z,102455.53
2023-02-09T00:10:13.579Z,102457.44
2023-02-09T00:12:59.697Z,102465.28
2023-02-09T00:15:28.275Z,102463.75
2023-02-09T00:17:57.173Z,102469.94
2023-02-09T00:20:27.122Z,102477.03
2023-02-09T00:22:55.705Z,102478.09
2023-02-09T00:25:24.305Z,102489.53
2023-02-09T00:27:53.097Z,102495.72
2023-02-09T00:30:21.786Z,102506.34
2023-02-09T00:32:50.461Z,102503.78
2023-02-09T00:35:19.052Z,102512.56
2023-02-09T00:37:49.256Z,102504.75
2023-02-09T00:40:17.656Z,102507.47
2023-02-09T00:42:46.206Z,102513.59
2023-02-09T00:45:15.500Z,102508.50
2023-02-09T00:47:43.934Z,102507.69
2023-02-09T00:50:12.628Z,102519.94
2023-02-09T00:52:41.286Z,102525.22
2023-02-09T00:55:11.679Z,102528.72
2023-02-09T00:57:40.831Z,102537.47
2023-02-09T01:00:14.575Z,102548.75
2023-02-09T01:02:43.170Z,102552.28
2023-02-09T01:05:11.700Z,102552.31
2023-02-09T01:07:40.328Z,102561.97
2023-02-09T01:10:12.032Z,102564.59
2023-02-09T01:12:42.374Z,102564.66
2023-02-09T01:15:12.935Z,102574.38
2023-02-09T01:17:41.625Z,102581.34
2023-02-09T01:20:11.622Z,102586.66
2023-02-09T01:22:40.718Z,102578.84
2023-02-09T01:25:11.360Z,102581.50
2023-02-09T01:27:40.773Z,102570.28
2023-02-09T01:30:11.286Z,102568.53
2023-02-09T01:32:40.137Z,102569.53
2023-02-09T01:35:09.355Z,102567.78
2023-02-09T01:37:38.036Z,102567.84
2023-02-09T01:40:08.154Z,102570.56
2023-02-09T01:42:38.848Z,102576.66
2023-02-09T01:45:18.863Z,102576.72
2023-02-09T01:47:51.813Z,102571.53
2023-02-09T01:50:21.662Z,102572.47
2023-02-09T01:52:51.512Z,102565.56
2023-02-09T01:55:24.330Z,102574.31
2023-02-09T01:57:58.258Z,102572.59
2023-02-09T02:00:27.719Z,102581.34
2023-02-09T02:03:01.836Z,102589.19
2023-02-09T02:05:32.773Z,102593.56
2023-02-09T02:08:06.286Z,102591.00
2023-02-09T02:10:35.333Z,102582.28
2023-02-09T02:13:05.643Z,102582.34
2023-02-09T02:15:43.988Z,102584.13
2023-02-09T02:18:32.080Z,102590.28
2023-02-09T02:21:33.309Z,102590.31
2023-02-09T02:24:31.910Z,102587.72
2023-02-09T02:27:03.088Z,102593.03
2023-02-09T02:30:16.020Z,102588.66
2023-02-09T02:32:54.381Z,102590.44
2023-02-09T02:35:31.091Z,102594.78
2023-02-09T02:38:04.538Z,102590.41
2023-02-09T02:40:45.668Z,102594.75
2023-02-09T02:43:25.891Z,102587.84
2023-02-09T02:46:02.315Z,102598.31
2023-02-09T02:48:39.841Z,102604.44
2023-02-09T02:51:13.032Z,102612.22
2023-02-09T02:53:45.408Z,102610.50
2023-02-09T02:56:20.120Z,102607.00
2023-02-09T02:58:51.711Z,102607.91
2023-02-09T03:01:27.279Z,102601.84
2023-02-09T03:03:58.630Z,102601.84
2023-02-09T03:06:27.543Z,102594.09
2023-02-09T03:08:57.539Z,102588.91
2023-02-09T03:11:32.122Z,102589.84
2023-02-09T03:14:13.276Z,102596.81
2023-02-09T03:16:46.722Z,102600.28
2023-02-09T03:19:31.771Z,102612.44
2023-02-09T03:22:07.671Z,102614.22
2023-02-09T03:24:42.656Z,102617.72
2023-02-09T03:27:18.822Z,102620.34
2023-02-09T03:29:51.419Z,102627.38
2023-02-09T03:32:22.255Z,102623.03
2023-02-09T03:34:53.426Z,102623.94
2023-02-09T03:37:22.339Z,102628.31
2023-02-09T03:39:50.844Z,102617.06
2023-02-09T03:42:19.656Z,102607.53
2023-02-09T03:44:48.270Z,102609.31
2023-02-09T03:47:16.981Z,102603.25
2023-02-09T03:49:45.886Z,102592.00
2023-02-09T03:52:17.718Z,102611.16
2023-02-09T03:54:46.576Z,102605.97
2023-02-09T03:57:15.156Z,102600.81
2023-02-09T03:59:43.820Z,102608.63
2023-02-09T04:02:12.722Z,102611.28
2023-02-09T04:04:41.420Z,102606.06
2023-02-09T04:07:10.283Z,102595.69
2023-02-09T04:09:40.297Z,102598.31
2023-02-09T04:12:09.173Z,102603.56
2023-02-09T04:14:37.780Z,102605.31
2023-02-09T04:17:06.572Z,102611.38
2023-02-09T04:19:35.231Z,102627.88
2023-02-09T04:22:03.882Z,102615.69
2023-02-09T04:24:32.437Z,102604.41
2023-02-09T04:27:02.373Z,102605.28
2023-02-09T04:29:30.873Z,102615.69
2023-02-09T04:31:59.589Z,102604.44
2023-02-09T04:34:28.315Z,102608.78
2023-02-09T04:36:56.944Z,102627.00
2023-02-09T04:39:25.664Z,102633.13
2023-02-09T04:41:54.514Z,102630.53
2023-02-09T04:44:24.616Z,102640.94
2023-02-09T04:46:53.205Z,102642.69
2023-02-09T04:49:22.744Z,102653.09
2023-02-09T04:51:51.507Z,102653.97
2023-02-09T04:54:20.139Z,102654.84
2023-02-09T04:57:08.885Z,102653.16
2023-02-09T04:59:39.540Z,102651.44
2023-02-09T05:02:08.155Z,102661.00
2023-02-09T05:04:36.738Z,102655.81
2023-02-09T05:07:05.467Z,102664.50
2023-02-09T05:09:34.198Z,102659.34
2023-02-09T05:12:02.906Z,102670.66
2023-02-09T05:14:31.544Z,102673.28
2023-02-09T05:17:01.963Z,102677.63
2023-02-09T05:19:31.306Z,102687.19
2023-02-09T05:22:00.397Z,102684.59
2023-02-09T05:24:29.167Z,102682.88
2023-02-09T05:26:57.717Z,102682.03
2023-02-09T05:29:26.218Z,102684.63
2023-02-09T05:31:54.783Z,102682.03
2023-02-09T05:34:25.016Z,102678.59
2023-02-09T05:36:53.908Z,102675.09
2023-02-09T05:39:22.569Z,102676.00
2023-02-09T05:42:22.968Z,102682.94
2023-02-09T05:44:52.888Z,102675.16
2023-02-09T05:47:24.888Z,102688.16
2023-02-09T05:49:55.097Z,102690.81
2023-02-09T05:52:24.566Z,102693.41
2023-02-09T05:54:53.238Z,102698.63
2023-02-09T05:57:21.923Z,102696.88
2023-02-09T05:59:50.621Z,102701.25
2023-02-09T06:02:19.459Z,102699.50
2023-02-09T06:04:48.272Z,102701.25
2023-02-09T06:07:18.453Z,102700.41
2023-02-09T06:09:47.393Z,102697.81
2023-02-09T06:12:16.175Z,102703.03
2023-02-09T06:14:44.992Z,102706.50
2023-02-09T06:17:14.091Z,102715.16
2023-02-09T06:19:42.663Z,102712.56
2023-02-09T06:22:11.277Z,102710.81
2023-02-09T06:24:41.450Z,102709.94
2023-02-09T06:27:10.009Z,102715.16
2023-02-09T06:29:38.661Z,102704.78
2023-02-09T06:32:07.674Z,102713.44
2023-02-09T06:34:36.601Z,102711.66
2023-02-09T06:37:05.282Z,102711.69
2023-02-09T06:39:33.903Z,102713.41
2023-02-09T06:42:03.966Z,102719.44
2023-02-09T06:44:32.939Z,102721.13
2023-02-09T06:47:01.554Z,102730.69
2023-02-09T06:49:30.079Z,102730.66
2023-02-09T06:51:58.749Z,102733.25
2023-02-09T06:54:28.801Z,102727.16
2023-02-09T06:56:57.754Z,102731.47
2023-02-09T06:59:27.887Z,102733.13
2023-02-09T07:01:56.476Z,102738.38
2023-02-09T07:04:25.228Z,102747.91
2023-02-09T07:06:53.850Z,102747.03
2023-02-09T07:09:22.697Z,102743.56
2023-02-09T07:11:51.446Z,102738.38
2023-02-09T07:14:20.170Z,102746.19
2023-02-09T07:16:50.331Z,102743.56
2023-02-09T07:19:18.874Z,102746.16
2023-02-09T07:21:47.519Z,102740.94
2023-02-09T07:24:16.092Z,102740.94
2023-02-09T07:26:45.040Z,102727.91
2023-02-09T07:29:13.632Z,102733.13
2023-02-09T07:31:42.284Z,102734.91
2023-02-09T07:34:13.905Z,102732.28
2023-02-09T07:36:42.453Z,102733.13
2023-02-09T07:39:11.217Z,102733.97
2023-02-09T07:41:41.191Z,102738.25
2023-02-09T07:44:12.602Z,102735.59
2023-02-09T07:46:41.260Z,102738.19
2023-02-09T07:49:09.954Z,102732.97
2023-02-09T07:51:40.964Z,102745.97
2023-02-09T07:54:14.493Z,102745.06
2023-02-09T07:56:43.880Z,102751.13
2023-02-09T07:59:12.805Z,102754.63
2023-02-09T08:01:41.676Z,102752.00
2023-02-09T08:04:12.402Z,102765.00
2023-02-09T08:06:46.288Z,102774.53
2023-02-09T08:09:18.421Z,102778.88
2023-02-09T08:11:52.144Z,102785.75
2023-02-09T08:14:26.663Z,102793.56
2023-02-09T08:17:18.251Z,102792.66
2023-02-09T08:19:52.263Z,102798.72
2023-02-09T08:22:23.854Z,102802.16
2023-02-09T08:24:54.381Z,102808.19
2023-02-09T08:27:23.523Z,102810.78
2023-02-09T08:29:52.286Z,102800.31
2023-02-09T08:32:21.097Z,102795.94
2023-02-09T08:34:49.892Z,102809.81
2023-02-09T08:37:18.438Z,102814.13
2023-02-09T08:39:48.589Z,102817.56
2023-02-09T08:42:17.129Z,102818.41
2023-02-09T08:44:45.773Z,102816.66
2023-02-09T08:47:14.322Z,102821.84
2023-02-09T08:49:43.451Z,102831.41
2023-02-09T08:52:11.963Z,102836.63
2023-02-09T08:54:40.649Z,102841.81
2023-02-09T08:57:10.751Z,102838.34
2023-02-09T08:59:39.345Z,102840.09
2023-02-09T09:02:08.319Z,102834.81
2023-02-09T09:04:36.878Z,102842.66
2023-02-09T09:07:05.336Z,102842.72
2023-02-09T09:09:34.014Z,102858.38
2023-02-09T09:12:02.489Z,102849.72
2023-02-09T09:14:32.521Z,102853.19
2023-02-09T09:17:01.025Z,102848.78
2023-02-09T09:19:29.960Z,102846.06
2023-02-09T09:22:00.786Z,102852.94
2023-02-09T09:24:29.558Z,102847.66
2023-02-09T09:26:58.564Z,102848.41
2023-02-09T09:29:27.122Z,102845.59
2023-02-09T09:31:57.260Z,102856.81
2023-02-09T09:34:25.801Z,102852.38
2023-02-09T09:36:54.134Z,102853.97
2023-02-09T09:39:22.796Z,102864.22
2023-02-09T09:41:55.064Z,102875.38
2023-02-09T09:44:32.603Z,102862.97
2023-02-09T09:47:07.458Z,102867.31
2023-02-09T09:49:38.788Z,102862.09
2023-02-09T09:52:10.704Z,102871.78
2023-02-09T09:54:39.672Z,102878.59
2023-02-09T09:57:20.255Z,102868.75
2023-02-09T09:59:49.064Z,102866.00
2023-02-09T10:02:26.722Z,102866.72
2023-02-09T10:04:57.500Z,102865.59
2023-02-09T10:07:33.168Z,102871.47
2023-02-09T10:10:06.685Z,102857.31
2023-02-09T10:12:39.283Z,102868.56
2023-02-09T10:15:30.265Z,102867.59
2023-02-09T10:18:01.408Z,102862.16
2023-02-09T10:20:49.450Z,102861.25
2023-02-09T10:23:21.214Z,102886.63
2023-02-09T10:26:21.522Z,102876.88
2023-02-09T10:28:52.035Z,102877.53
2023-02-09T10:31:26.088Z,102881.88
2023-02-09T10:34:00.774Z,102887.97
2023-02-09T10:36:33.362Z,102880.78
2023-02-09T10:39:16.839Z,102882.19
2023-02-09T10:41:49.583Z,102882.94
2023-02-09T10:44:23.234Z,102892.34
2023-02-09T10:46:53.292Z,102875.66
2023-02-09T10:49:33.263Z,102882.41
2023-02-09T10:52:14.542Z,102890.19
2023-02-09T10:54:44.553Z,102885.59
2023-02-09T10:57:25.327Z,102886.34
2023-02-09T10:59:57.359Z,102887.97
2023-02-09T11:02:51.072Z,102887.97
2023-02-09T11:05:32.854Z,102886.88
2023-02-09T11:08:12.689Z,102890.25
2023-02-09T11:10:46.938Z,102886.69
2023-02-09T11:13:23.429Z,102909.31
2023-02-09T11:16:23.217Z,102906.44
2023-02-09T11:18:59.635Z,102895.56
2023-02-09T11:21:42.484Z,102909.78
2023-02-09T11:24:26.249Z,102900.81
2023-02-09T11:26:59.073Z,102899.50
2023-02-09T11:29:31.741Z,102909.34
2023-02-09T11:32:18.791Z,102902.13
2023-02-09T11:35:04.041Z,102901.53
2023-02-09T11:37:46.166Z,102903.13
2023-02-09T11:40:34.308Z,102900.28
2023-02-09T11:43:21.764Z,102889.88
2023-02-09T11:45:52.435Z,102881.44
2023-02-09T11:48:26.814Z,102885.00
2023-02-09T11:51:05.916Z,102877.41
2023-02-09T11:53:43.590Z,102868.84
2023-02-09T11:56:15.535Z,102869.53
2023-02-09T11:58:51.202Z,102877.81
2023-02-09T12:01:40.691Z,102873.88
2023-02-09T12:04:19.405Z,102910.75
2023-02-09T12:06:51.890Z,102902.09
2023-02-09T12:09:33.552Z,102877.44
2023-02-09T12:12:12.763Z,102881.78
2023-02-09T12:14:52.457Z,102885.91
2023-02-09T12:17:24.735Z,102888.22
2023-02-09T12:19:58.946Z,102899.91
2023-02-09T12:22:50.180Z,102893.47
2023-02-09T12:25:34.438Z,102873.06
2023-02-09T12:28:18.534Z,102885.84
2023-02-09T12:31:09.003Z,102873.44
2023-02-09T12:33:39.194Z,102870.03
2023-02-09T12:36:29.303Z,102870.16
2023-02-09T12:39:05.637Z,102871.00
2023-02-09T12:42:07.745Z,102851.28
2023-02-09T12:44:55.670Z,102842.72
2023-02-09T12:47:59.859Z,102853.94
2023-02-09T12:50:57.080Z,102856.72
2023-02-09T12:53:49.396Z,102857.59
2023-02-09T12:56:35.023Z,102861.00
2023-02-09T12:59:22.817Z,102846.22
2023-02-09T13:02:27.777Z,102855.19
2023-02-09T13:05:01.922Z,102857.03
2023-02-09T13:07:44.517Z,102850.03
2023-02-09T13:10:24.833Z,102842.97
2023-02-09T13:13:00.516Z,102841.25
2023-02-09T13:15:47.217Z,102878.50
2023-02-09T13:18:27.721Z,102856.13
2023-02-09T13:21:20.213Z,102867.66
2023-02-09T13:24:01.580Z,102870.22
2023-02-09T13:26:33.846Z,102868.34
2023-02-09T13:29:20.538Z,102872.09
2023-02-09T13:32:02.863Z,102859.81
2023-02-09T13:34:39.659Z,102861.31
2023-02-09T13:37:28.491Z,102855.22
2023-02-09T13:40:01.039Z,102854.88
2023-02-09T13:42:32.286Z,102860.50
2023-02-09T13:45:01.794Z,102853.63
2023-02-09T13:47:30.827Z,102861.13
2023-02-09T13:50:04.163Z,102855.72
2023-02-09T13:52:38.815Z,102848.84
2023-02-09T13:55:13.265Z,102865.66
2023-02-09T13:57:44.664Z,102852.84
2023-02-09T14:00:25.842Z,102851.78
2023-02-09T14:02:59.877Z,102871.06
2023-02-09T14:05:39.277Z,102856.88
2023-02-09T14:08:09.859Z,102831.41
2023-02-09T14:10:39.458Z,102849.50
2023-02-09T14:13:18.540Z,102865.41
2023-02-09T14:16:09.131Z,102828.13
2023-02-09T14:18:46.783Z,102823.09
2023-02-09T14:21:37.683Z,102814.44
2023-02-09T14:24:19.827Z,102810.53
2023-02-09T14:26:56.638Z,102802.53
2023-02-09T14:29:28.523Z,102810.94
2023-02-09T14:31:59.146Z,102814.44
2023-02-09T14:34:34.749Z,102813.84
2023-02-09T14:37:26.898Z,102816.81
2023-02-09T14:39:56.547Z,102835.59
2023-02-09T14:42:25.405Z,102827.81
2023-02-09T14:44:57.074Z,102820.22
2023-02-09T14:47:39.143Z,102820.84
2023-02-09T14:50:11.903Z,102814.09
2023-02-09T14:52:46.854Z,102818.97
2023-02-09T14:55:18.740Z,102825.09
2023-02-09T14:57:47.208Z,102831.03
2023-02-09T15:00:19.466Z,102832.16
2023-02-09T15:02:48.275Z,102838.69
2023-02-09T15:05:17.955Z,102826.44
2023-02-09T15:07:51.805Z,102835.78
2023-02-09T15:10:26.518Z,102839.47
2023-02-09T15:12:55.461Z,102846.91
2023-02-09T15:15:25.610Z,102845.47
2023-02-09T15:17:55.468Z,102832.59
2023-02-09T15:20:25.953Z,102836.97
2023-02-09T15:22:56.914Z,102830.63
2023-02-09T15:25:26.509Z,102825.28
2023-02-09T15:27:59.392Z,102837.25
2023-02-09T15:30:32.055Z,102832.00
2023-02-09T15:33:00.972Z,102827.44
2023-02-09T15:35:30.788Z,102837.91
2023-02-09T15:38:02.833Z,102850.22
2023-02-09T15:40:51.886Z,102836.41
2023-02-09T15:43:40.132Z,102830.00
2023-02-09T15:46:27.001Z,102838.41
2023-02-09T15:48:55.619Z,102839.00
2023-02-09T15:51:25.643Z,102836.88
2023-02-09T15:53:58.037Z,102850.78
2023-02-09T15:56:26.644Z,102848.13
2023-02-09T15:58:59.040Z,102858.22
2023-02-09T16:01:27.843Z,102841.72
2023-02-09T16:04:05.374Z,102862.84
2023-02-09T16:06:43.860Z,102863.41
2023-02-09T16:09:20.070Z,102858.44
2023-02-09T16:11:48.750Z,102862.28
2023-02-09T16:14:20.858Z,102864.16
2023-02-09T16:16:50.156Z,102865.19
2023-02-09T16:19:20.849Z,102869.69
2023-02-09T16:21:53.000Z,102882.03
2023-02-09T16:24:31.694Z,102883.88
2023-02-09T16:27:00.767Z,102891.91
2023-02-09T16:29:29.311Z,102885.72
2023-02-09T16:31:57.529Z,102888.19
2023-02-09T16:34:25.809Z,102883.84
2023-02-09T16:36:54.290Z,102896.34
2023-02-09T16:39:25.192Z,102897.28
2023-02-09T16:41:53.806Z,102895.63
2023-02-09T16:44:24.505Z,102891.25
2023-02-09T16:46:55.512Z,102891.25
2023-02-09T16:49:36.486Z,102900.97
2023-02-09T16:52:13.895Z,102902.94
2023-02-09T16:54:46.118Z,102911.75
2023-02-09T16:57:16.849Z,102923.28
2023-02-09T16:59:45.916Z,102931.19
2023-02-09T17:02:35.227Z,102923.31
2023-02-09T17:05:09.648Z,102932.09
2023-02-09T17:07:52.453Z,102927.88
2023-02-09T17:10:27.303Z,102933.16
2023-02-09T17:12:56.027Z,102937.63
2023-02-09T17:15:31.438Z,102928.06
2023-02-09T17:18:04.920Z,102936.88
2023-02-09T17:20:38.456Z,102935.91
2023-02-09T17:23:07.683Z,102939.50
2023-02-09T17:25:38.353Z,102938.69
2023-02-09T17:28:07.301Z,102951.91
2023-02-09T17:30:36.602Z,102956.13
2023-02-09T17:33:08.290Z,102958.06
2023-02-09T17:38:33.415Z,102957.44
2023-02-09T17:41:07.421Z,102955.69
2023-02-09T17:43:35.693Z,102950.44
2023-02-09T17:46:06.364Z,102952.19
2023-02-09T17:48:35.026Z,102943.50
2023-02-09T17:51:07.128Z,102944.44
2023-02-09T17:53:36.719Z,102949.50
2023-02-09T17:56:09.066Z,102955.81
2023-02-09T17:58:37.786Z,102953.28
2023-02-09T18:01:22.117Z,102957.69
2023-02-09T18:03:51.938Z,102959.56
2023-02-09T18:06:26.295Z,102961.38
2023-02-09T18:08:55.218Z,102964.94
2023-02-09T18:11:41.544Z,102947.41
2023-02-09T18:14:13.620Z,102974.63
2023-02-09T18:16:43.300Z,102972.91
2023-02-09T18:19:12.864Z,102981.78
2023-02-09T18:21:50.491Z,102979.13
2023-02-09T18:24:21.866Z,102980.97
2023-02-09T18:26:53.289Z,102991.44
2023-02-09T18:29:26.392Z,102995.75
2023-02-09T18:31:55.101Z,102997.53
2023-02-09T18:34:25.527Z,102987.06
2023-02-09T18:36:54.203Z,102989.66
2023-02-09T18:39:23.057Z,102980.97
2023-02-09T18:41:54.983Z,102978.38
2023-02-09T18:44:29.410Z,102980.09
2023-02-09T18:47:00.741Z,102973.91
2023-02-09T18:49:29.578Z,102968.81
2023-02-09T18:51:59.768Z,102968.81
2023-02-09T18:54:31.790Z,102973.13
2023-02-09T18:57:01.833Z,102970.50
2023-02-09T18:59:31.564Z,102966.03
2023-02-09T19:02:01.032Z,102965.22
2023-02-09T19:04:29.806Z,102980.22
2023-02-09T19:06:58.560Z,102974.97
2023-02-09T19:09:28.474Z,102980.16
2023-02-09T19:11:57.282Z,102973.19
2023-02-09T19:14:39.447Z,102975.75
2023-02-09T19:17:10.793Z,102980.13
2023-02-09T19:19:39.802Z,102977.50
2023-02-09T19:22:08.850Z,102973.03
2023-02-09T19:24:37.361Z,102973.25
2023-02-09T19:27:09.525Z,102968.16
2023-02-09T19:29:41.458Z,102959.53
2023-02-09T19:32:10.773Z,102970.13
2023-02-09T19:34:41.521Z,102958.91
2023-02-09T19:37:10.221Z,102963.28
2023-02-09T19:39:41.326Z,102961.66
2023-02-09T19:42:10.619Z,102953.00
2023-02-09T19:44:41.018Z,102943.56
2023-02-09T19:47:09.451Z,102943.66
2023-02-09T19:49:39.286Z,102948.91
2023-02-09T19:52:08.601Z,102949.81
2023-02-09T19:54:37.203Z,102956.06
2023-02-09T19:57:06.052Z,102961.28
2023-02-09T19:59:34.562Z,102966.56
2023-02-09T20:02:04.547Z,102970.03
2023-02-09T20:04:34.338Z,102983.13
2023-02-09T20:07:03.817Z,102983.09
2023-02-09T20:09:32.505Z,102989.19
2023-02-09T20:12:00.852Z,102995.28
2023-02-09T20:14:31.557Z,102999.66
2023-02-09T20:17:01.436Z,102996.25
2023-02-09T20:19:31.947Z,102988.31
2023-02-09T20:22:00.512Z,103004.00
2023-02-09T20:24:30.108Z,103000.41
2023-02-09T20:26:58.809Z,103003.16
2023-02-09T20:29:27.492Z,103011.88
2023-02-09T20:31:56.249Z,103004.88
2023-02-09T20:34:25.775Z,103010.91
2023-02-09T20:36:57.575Z,103019.66
2023-02-09T20:39:25.886Z,103010.97
2023-02-09T20:42:21.206Z,103028.47
2023-02-09T20:45:07.163Z,103029.41
2023-02-09T20:47:35.815Z,103032.09
2023-02-09T20:50:05.232Z,103032.09
2023-02-09T20:52:37.083Z,103025.03
2023-02-09T20:55:05.999Z,103025.09
2023-02-09T20:57:34.613Z,103027.63
2023-02-09T21:00:04.312Z,103030.34
2023-02-09T21:02:33.864Z,103018.19
2023-02-09T21:05:02.662Z,103027.81
2023-02-09T21:07:31.563Z,103028.56
2023-02-09T21:10:02.811Z,103017.22
2023-02-09T21:12:31.269Z,103020.00
2023-02-09T21:15:00.424Z,103014.78
2023-02-09T21:17:29.033Z,103017.41
2023-02-09T21:19:57.665Z,103023.69
2023-02-09T21:22:26.325Z,103020.88
2023-02-09T21:24:54.826Z,103022.75
2023-02-09T21:27:26.295Z,103012.25
2023-02-09T21:29:54.719Z,103010.66
2023-02-09T21:32:23.255Z,103016.88
2023-02-09T21:34:52.142Z,103007.31
2023-02-09T21:37:21.283Z,103009.19
2023-02-09T21:39:49.749Z,103012.72
2023-02-09T21:42:28.964Z,103018.00
2023-02-09T21:44:59.838Z,103008.63
2023-02-09T21:47:29.490Z,103010.44
2023-02-09T21:49:58.144Z,102997.47
2023-02-09T21:52:27.064Z,102999.25
2023-02-09T21:54:55.585Z,103002.78
2023-02-09T21:57:26.224Z,103002.78
2023-02-09T21:59:56.030Z,103013.34
2023-02-09T22:02:27.793Z,103020.44
2023-02-09T22:04:56.509Z,103027.47
2023-02-09T22:07:25.312Z,103038.84
2023-02-09T22:09:53.946Z,103040.59
2023-02-09T22:12:22.494Z,103034.50
2023-02-09T22:14:51.077Z,103038.03
2023-02-09T22:17:19.707Z,103031.91
2023-02-09T22:19:49.777Z,103038.13
2023-02-09T22:22:18.259Z,103039.06
2023-02-09T22:24:46.791Z,103039.13
2023-02-09T22:27:15.298Z,103038.22
2023-02-09T22:29:44.566Z,103033.88
2023-02-09T22:32:13.265Z,103034.81
2023-02-09T22:34:43.717Z,103028.75
2023-02-09T22:37:14.077Z,103026.25
2023-02-09T22:39:45.392Z,103018.38
2023-02-09T22:42:13.891Z,103027.16
2023-02-09T22:44:43.009Z,103022.69
2023-02-09T22:47:11.699Z,103016.59
2023-02-09T22:49:40.705Z,103012.38
2023-02-09T22:52:10.741Z,103011.47
2023-02-09T22:54:40.979Z,103011.56
2023-02-09T22:57:09.739Z,103008.16
2023-02-09T22:59:38.309Z,103007.28
2023-02-09T23:02:07.303Z,102995.03
2023-02-09T23:04:35.868Z,102997.66
2023-02-09T23:07:05.301Z,103007.28
2023-02-09T23:09:34.107Z,103009.09
2023-02-09T23:12:04.401Z,103014.34
2023-02-09T23:14:32.994Z,103010.81
2023-02-09T23:17:01.562Z,103011.72
2023-02-09T23:19:30.087Z,103005.66
2023-02-09T23:21:58.721Z,103004.81
2023-02-09T23:24:28.023Z,102994.31
2023-02-09T23:26:58.254Z,102994.28
2023-02-09T23:29:28.369Z,102989.13
2023-02-09T23:31:58.399Z,102989.22
2023-02-09T23:34:26.948Z,102991.03
2023-02-09T23:36:55.971Z,102985.81
2023-02-09T23:39:26.931Z,103011.97
2023-02-09T23:41:55.575Z,102998.88
2023-02-09T23:44:25.199Z,103005.00
2023-02-09T23:46:55.248Z,102984.84
2023-02-09T23:49:24.168Z,102986.69
2023-02-09T23:51:53.392Z,102987.53
2023-02-09T23:54:21.987Z,102993.53
2023-02-09T23:56:52.775Z,103006.69
2023-02-09T23:59:21.731Z,103001.53
